createdAt,value
2024-04-16T00:00:38.429Z,99648.31
2024-04-16T00:03:06.041Z,99639.63
2024-04-16T00:05:33.130Z,99628.94
2024-04-16T00:08:00.693Z,99628.63
2024-04-16T00:10:27.839Z,99619.63
2024-04-16T00:12:54.546Z,99615.09
2024-04-16T00:15:21.586Z,99614.28
2024-04-16T00:17:48.386Z,99605.25
2024-04-16T00:20:15.209Z,99604.44
2024-04-16T00:22:42.544Z,99607.94
2024-04-16T00:25:10.099Z,99598.25
2024-04-16T00:27:36.920Z,99599.91
2024-04-16T00:30:04.247Z,99592.91
2024-04-16T00:32:31.151Z,99589.22
2024-04-16T00:34:57.937Z,99576.56
2024-04-16T00:37:24.783Z,99583.59
2024-04-16T00:39:51.550Z,99575.88
2024-04-16T00:42:18.291Z,99560.53
2024-04-16T00:44:45.123Z,99561.34
2024-04-16T00:47:13.937Z,99547.31
2024-04-16T00:49:41.087Z,99545.31
2024-04-16T00:52:08.227Z,99543.50
2024-04-16T00:54:35.704Z,99533.81
2024-04-16T00:57:04.592Z,99521.47
2024-04-16T00:59:32.849Z,99517.78
2024-04-16T01:01:59.555Z,99507.44
2024-04-16T01:04:26.877Z,99501.56
2024-04-16T01:06:53.804Z,99495.41
2024-04-16T01:09:20.639Z,99483.53
2024-04-16T01:11:50.251Z,99482.66
2024-04-16T01:14:19.170Z,99484.22
2024-04-16T01:16:45.986Z,99482.00
2024-04-16T01:19:12.817Z,99482.00
2024-04-16T01:21:39.627Z,99465.50
2024-04-16T01:24:06.516Z,99472.84
2024-04-16T01:26:33.269Z,99457.94
2024-04-16T01:29:00.019Z,99461.63
2024-04-16T01:31:27.326Z,99454.59
2024-04-16T01:33:54.056Z,99459.94
2024-04-16T01:36:20.890Z,99459.28
2024-04-16T01:38:47.590Z,99463.63
2024-04-16T01:41:14.413Z,99454.13
2024-04-16T01:43:41.152Z,99450.78
2024-04-16T01:46:09.254Z,99451.59
2024-04-16T01:48:36.467Z,99447.09
2024-04-16T01:51:03.667Z,99440.91
2024-04-16T01:53:30.454Z,99431.22
2024-04-16T01:56:01.226Z,99440.25
2024-04-16T01:58:28.076Z,99431.56
2024-04-16T02:01:02.067Z,99433.22
2024-04-16T02:03:29.068Z,99429.72
2024-04-16T02:05:59.420Z,99423.88
2024-04-16T02:08:26.477Z,99422.22
2024-04-16T02:10:54.728Z,99417.84
2024-04-16T02:13:21.964Z,99415.19
2024-04-16T02:15:49.297Z,99418.53
2024-04-16T02:18:16.178Z,99407.84
2024-04-16T02:20:42.966Z,99402.50
2024-04-16T02:23:09.876Z,99402.19
2024-04-16T02:25:36.759Z,99394.88
2024-04-16T02:28:04.176Z,99394.03
2024-04-16T02:30:31.512Z,99385.16
2024-04-16T02:32:58.305Z,99384.19
2024-04-16T02:35:25.074Z,99375.50
2024-04-16T02:37:51.779Z,99370.69
2024-04-16T02:40:18.563Z,99373.50
2024-04-16T02:42:45.325Z,99373.50
2024-04-16T02:45:12.033Z,99357.50
2024-04-16T02:47:38.859Z,99343.97
2024-04-16T02:50:06.129Z,99338.66
2024-04-16T02:52:33.044Z,99343.97
2024-04-16T02:54:59.871Z,99342.81
2024-04-16T02:57:26.613Z,99329.09
2024-04-16T02:59:53.342Z,99334.13
2024-04-16T03:02:20.218Z,99340.44
2024-04-16T03:04:47.966Z,99332.97
2024-04-16T03:07:14.844Z,99324.78
2024-04-16T03:09:41.649Z,99327.31
2024-04-16T03:12:08.651Z,99326.13
2024-04-16T03:14:35.345Z,99327.78
2024-04-16T03:17:02.090Z,99327.47
2024-04-16T03:19:29.202Z,99323.47
2024-04-16T03:21:56.140Z,99318.13
2024-04-16T03:24:23.039Z,99314.63
2024-04-16T03:26:49.903Z,99323.47
2024-04-16T03:29:16.954Z,99320.63
2024-04-16T03:31:43.759Z,99317.81
2024-04-16T03:34:10.592Z,99304.59
2024-04-16T03:36:37.367Z,99309.44
2024-04-16T03:39:04.250Z,99311.13
2024-04-16T03:41:30.967Z,99312.63
2024-04-16T03:43:57.718Z,99304.44
2024-04-16T03:46:24.558Z,99306.09
2024-04-16T03:48:51.365Z,99304.09
2024-04-16T03:51:18.079Z,99294.75
2024-04-16T03:53:45.119Z,99288.22
2024-04-16T03:56:11.839Z,99295.91
2024-04-16T03:58:46.063Z,99285.06
2024-04-16T04:01:14.372Z,99285.56
2024-04-16T04:03:43.639Z,99285.22
2024-04-16T04:06:11.750Z,99284.38
2024-04-16T04:08:38.510Z,99280.53
2024-04-16T04:11:05.616Z,99280.38
2024-04-16T04:13:32.525Z,99278.69
2024-04-16T04:15:59.335Z,99273.34
2024-04-16T04:18:26.119Z,99280.53
2024-04-16T04:20:53.103Z,99272.53
2024-04-16T04:23:19.877Z,99266.34
2024-04-16T04:25:46.627Z,99266.00
2024-04-16T04:28:13.411Z,99268.00
2024-04-16T04:30:40.135Z,99258.34
2024-04-16T04:33:06.974Z,99259.31
2024-04-16T04:35:33.762Z,99253.16
2024-04-16T04:38:00.644Z,99258.00
2024-04-16T04:40:27.844Z,99258.34
2024-04-16T04:42:56.596Z,99253.34
2024-04-16T04:45:23.404Z,99244.00
2024-04-16T04:47:50.354Z,99251.03
2024-04-16T04:50:17.238Z,99242.34
2024-04-16T04:52:44.024Z,99237.97
2024-04-16T04:55:10.991Z,99237.47
2024-04-16T04:57:37.844Z,99239.66
2024-04-16T05:00:05.329Z,99229.81
2024-04-16T05:02:32.082Z,99233.31
2024-04-16T05:04:58.829Z,99229.81
2024-04-16T05:07:25.586Z,99227.13
2024-04-16T05:09:54.566Z,99221.13
2024-04-16T05:12:21.497Z,99224.78
2024-04-16T05:14:48.294Z,99225.81
2024-04-16T05:17:15.221Z,99216.97
2024-04-16T05:19:42.023Z,99216.97
2024-04-16T05:22:08.850Z,99205.44
2024-04-16T05:24:35.630Z,99209.94
2024-04-16T05:27:02.377Z,99205.44
2024-04-16T05:29:29.161Z,99204.59
2024-04-16T05:31:55.929Z,99205.44
2024-04-16T05:34:23.065Z,99208.09
2024-04-16T05:36:49.827Z,99205.44
2024-04-16T05:39:16.525Z,99206.28
2024-04-16T05:41:43.492Z,99203.44
2024-04-16T05:44:10.263Z,99198.59
2024-04-16T05:46:38.439Z,99200.25
2024-04-16T05:49:06.356Z,99197.41
2024-04-16T05:51:33.153Z,99193.91
2024-04-16T05:54:01.855Z,99206.94
2024-04-16T05:56:28.770Z,99197.91
2024-04-16T05:58:55.485Z,99198.72
2024-04-16T06:01:22.357Z,99197.56
2024-04-16T06:03:49.177Z,99192.91
2024-04-16T06:06:15.989Z,99189.19
2024-04-16T06:08:42.743Z,99188.22
2024-04-16T06:11:09.653Z,99184.50
2024-04-16T06:13:39.168Z,99188.88
2024-04-16T06:16:06.973Z,99181.69
2024-04-16T06:18:34.026Z,99184.19
2024-04-16T06:21:00.766Z,99190.34
2024-04-16T06:23:28.853Z,99191.19
2024-04-16T06:25:55.617Z,99193.53
2024-04-16T06:28:22.827Z,99196.19
2024-04-16T06:30:49.592Z,99191.69
2024-04-16T06:33:16.991Z,99183.00
2024-04-16T06:35:43.839Z,99187.00
2024-04-16T06:38:10.564Z,99191.16
2024-04-16T06:40:37.650Z,99188.84
2024-04-16T06:43:04.608Z,99182.16
2024-04-16T06:45:31.483Z,99194.31
2024-04-16T06:47:58.307Z,99187.78
2024-04-16T06:50:25.094Z,99187.78
2024-04-16T06:52:56.078Z,99192.81
2024-04-16T06:55:23.651Z,99193.63
2024-04-16T06:57:52.844Z,99205.50
2024-04-16T07:00:22.870Z,99206.06
2024-04-16T07:02:49.708Z,99215.28
2024-04-16T07:05:16.606Z,99208.50
2024-04-16T07:07:43.870Z,99220.16
2024-04-16T07:10:13.401Z,99221.09
2024-04-16T07:12:40.267Z,99229.59
2024-04-16T07:15:07.373Z,99219.56
2024-04-16T07:17:34.242Z,99222.13
2024-04-16T07:20:01.048Z,99218.59
2024-04-16T07:22:27.860Z,99239.69
2024-04-16T07:24:58.012Z,99227.47
2024-04-16T07:27:24.762Z,99239.38
2024-04-16T07:29:51.578Z,99245.50
2024-04-16T07:32:18.496Z,99242.78
2024-04-16T07:34:45.300Z,99245.09
2024-04-16T07:37:12.084Z,99244.09
2024-04-16T07:39:38.923Z,99258.09
2024-04-16T07:42:05.779Z,99258.41
2024-04-16T07:44:32.528Z,99251.72
2024-04-16T07:47:01.458Z,99255.16
2024-04-16T07:49:28.374Z,99258.59
2024-04-16T07:51:55.133Z,99261.00
2024-04-16T07:54:21.890Z,99263.94
2024-04-16T07:56:48.645Z,99273.13
2024-04-16T07:59:15.611Z,99274.47
2024-04-16T08:01:59.032Z,99263.38
2024-04-16T08:04:34.453Z,99286.69
2024-04-16T08:07:01.329Z,99291.22
2024-04-16T08:09:28.054Z,99292.38
2024-04-16T08:11:54.780Z,99294.94
2024-04-16T08:14:23.371Z,99295.25
2024-04-16T08:16:55.363Z,99302.53
2024-04-16T08:19:22.186Z,99309.28
2024-04-16T08:22:26.737Z,99327.03
2024-04-16T08:24:53.993Z,99317.00
2024-04-16T08:27:24.600Z,99316.31
2024-04-16T08:29:53.114Z,99312.97
2024-04-16T08:32:20.293Z,99321.63
2024-04-16T08:34:47.146Z,99332.75
2024-04-16T08:37:14.032Z,99338.94
2024-04-16T08:39:41.205Z,99343.56
2024-04-16T08:42:09.629Z,99348.19
2024-04-16T08:44:37.345Z,99344.13
2024-04-16T08:47:05.296Z,99356.84
2024-04-16T08:49:32.357Z,99357.69
2024-04-16T08:52:04.677Z,99352.09
2024-04-16T08:54:32.993Z,99356.84
2024-04-16T08:56:59.738Z,99357.91
2024-04-16T08:59:27.410Z,99359.59
2024-04-16T09:01:56.175Z,99370.22
2024-04-16T09:04:23.229Z,99372.44
2024-04-16T09:06:52.543Z,99365.75
2024-04-16T09:09:19.333Z,99379.47
2024-04-16T09:11:46.878Z,99375.81
2024-04-16T09:14:15.537Z,99380.75
2024-04-16T09:16:42.608Z,99376.69
2024-04-16T09:19:11.399Z,99383.97
2024-04-16T09:21:41.194Z,99387.88
2024-04-16T09:24:08.243Z,99400.75
2024-04-16T09:26:38.654Z,99391.38
2024-04-16T09:29:05.672Z,99389.00
2024-04-16T09:31:33.443Z,99387.34
2024-04-16T09:34:08.212Z,99390.13
2024-04-16T09:36:36.168Z,99389.00
2024-04-16T09:39:04.813Z,99385.38
2024-04-16T09:41:35.488Z,99400.31
2024-04-16T09:44:07.415Z,99398.53
2024-04-16T09:46:36.278Z,99397.66
2024-04-16T09:49:03.737Z,99400.31
2024-04-16T09:51:31.200Z,99401.56
2024-04-16T09:53:58.340Z,99398.22
2024-04-16T09:56:25.555Z,99411.59
2024-04-16T09:58:55.139Z,99409.38
2024-04-16T10:01:24.850Z,99420.38
2024-04-16T10:03:53.867Z,99416.75
2024-04-16T10:06:20.733Z,99407.66
2024-04-16T10:08:50.173Z,99427.78
2024-04-16T10:11:25.195Z,99426.94
2024-04-16T10:13:58.361Z,99414.34
2024-04-16T10:16:27.436Z,99426.22
2024-04-16T10:18:58.068Z,99423.28
2024-04-16T10:21:27.138Z,99437.41
2024-04-16T10:24:04.606Z,99429.00
2024-04-16T10:26:31.650Z,99429.69
2024-04-16T10:29:06.226Z,99443.69
2024-04-16T10:31:39.674Z,99449.41
2024-04-16T10:34:06.614Z,99445.75
2024-04-16T10:36:34.750Z,99456.09
2024-04-16T10:39:11.556Z,99455.94
2024-04-16T10:41:38.266Z,99459.00
2024-04-16T10:44:05.137Z,99465.16
2024-04-16T10:46:32.912Z,99468.50
2024-04-16T10:49:00.734Z,99471.03
2024-04-16T10:51:30.477Z,99475.75
2024-04-16T10:54:09.371Z,99475.50
2024-04-16T10:56:39.934Z,99477.69
2024-04-16T10:59:07.719Z,99473.34
2024-04-16T11:01:35.421Z,99479.91
2024-04-16T11:04:12.874Z,99484.09
2024-04-16T11:06:41.351Z,99486.16
2024-04-16T11:09:08.523Z,99481.25
2024-04-16T11:11:36.115Z,99488.78
2024-04-16T11:14:03.032Z,99500.97
2024-04-16T11:16:29.825Z,99500.97
2024-04-16T11:18:59.928Z,99506.81
2024-04-16T11:21:31.207Z,99506.41
2024-04-16T11:23:58.716Z,99516.72
2024-04-16T11:26:25.905Z,99516.03
2024-04-16T11:28:52.986Z,99509.75
2024-04-16T11:31:19.878Z,99517.88
2024-04-16T11:33:48.232Z,99515.34
2024-04-16T11:38:45.131Z,99523.44
2024-04-16T11:41:13.798Z,99525.25
2024-04-16T11:43:43.670Z,99534.31
2024-04-16T11:46:13.449Z,99536.53
2024-04-16T11:48:40.229Z,99530.06
2024-04-16T11:51:10.889Z,99538.75
2024-04-16T11:53:38.930Z,99533.16
2024-04-16T11:56:12.649Z,99522.88
2024-04-16T11:58:43.894Z,99528.59
2024-04-16T12:01:11.538Z,99531.63
2024-04-16T12:03:38.631Z,99532.31
2024-04-16T12:06:05.821Z,99529.06
2024-04-16T12:08:32.552Z,99533.78
2024-04-16T12:10:59.620Z,99537.13
2024-04-16T12:13:26.460Z,99538.81
2024-04-16T12:15:53.180Z,99538.81
2024-04-16T12:18:19.963Z,99538.50
2024-04-16T12:20:47.215Z,99542.41
2024-04-16T12:23:13.928Z,99535.63
2024-04-16T12:25:40.746Z,99553.38
2024-04-16T12:28:07.632Z,99552.22
2024-04-16T12:30:34.405Z,99539.47
2024-04-16T12:33:10.815Z,99536.88
2024-04-16T12:35:42.611Z,99536.59
2024-04-16T12:38:09.381Z,99550.31
2024-04-16T12:40:36.706Z,99538.38
2024-04-16T12:43:03.984Z,99550.41
2024-04-16T12:45:30.694Z,99542.94
2024-04-16T12:47:57.545Z,99533.47
2024-04-16T12:50:24.320Z,99544.50
2024-04-16T12:52:51.117Z,99541.84
2024-04-16T12:55:19.111Z,99544.34
2024-04-16T12:57:45.964Z,99544.66
2024-04-16T13:00:12.916Z,99548.00
2024-04-16T13:02:39.752Z,99542.53
2024-04-16T13:05:06.804Z,99546.53
2024-04-16T13:07:33.574Z,99543.59
2024-04-16T13:10:01.293Z,99551.94
2024-04-16T13:12:28.176Z,99549.66
2024-04-16T13:14:54.900Z,99544.19
2024-04-16T13:17:21.889Z,99547.97
2024-04-16T13:19:53.352Z,99555.97
2024-04-16T13:22:21.029Z,99548.66
2024-04-16T13:24:48.013Z,99559.31
2024-04-16T13:27:14.790Z,99559.31
2024-04-16T13:29:41.746Z,99563.00
2024-04-16T13:32:08.654Z,99561.31
2024-04-16T13:34:35.587Z,99566.97
2024-04-16T13:37:02.449Z,99558.09
2024-04-16T13:39:29.262Z,99567.94
2024-04-16T13:41:56.522Z,99551.25
2024-04-16T13:44:23.457Z,99568.63
2024-04-16T13:46:50.289Z,99567.94
2024-04-16T13:49:18.421Z,99571.28
2024-04-16T13:51:45.181Z,99578.13
2024-04-16T13:54:11.890Z,99570.31
2024-04-16T13:56:38.682Z,99579.53
2024-04-16T13:59:05.423Z,99576.69
2024-04-16T14:01:33.980Z,99572.34
2024-04-16T14:04:00.829Z,99584.75
2024-04-16T14:06:27.931Z,99579.78
2024-04-16T14:08:54.670Z,99582.13
2024-04-16T14:11:21.499Z,99587.16
2024-04-16T14:13:48.295Z,99590.50
2024-04-16T14:16:28.552Z,99584.34
2024-04-16T14:18:55.415Z,99592.22
2024-04-16T14:21:22.473Z,99592.22
2024-04-16T14:23:49.287Z,99598.38
2024-04-16T14:26:17.372Z,99604.53
2024-04-16T14:28:45.166Z,99596.16
2024-04-16T14:31:14.242Z,99605.38
2024-04-16T14:33:42.257Z,99596.69
2024-04-16T14:36:09.205Z,99609.88
2024-04-16T14:38:35.966Z,99608.22
2024-04-16T14:41:02.785Z,99605.53
2024-04-16T14:43:30.375Z,99618.56
2024-04-16T14:45:57.270Z,99620.84
2024-04-16T14:48:24.154Z,99618.88
2024-04-16T14:50:51.079Z,99622.53
2024-04-16T14:53:19.878Z,99627.19
2024-04-16T14:55:51.298Z,99619.19
2024-04-16T14:58:18.167Z,99629.88
2024-04-16T15:00:45.433Z,99633.69
2024-04-16T15:03:12.955Z,99635.34
2024-04-16T15:05:41.347Z,99638.00
2024-04-16T15:08:11.304Z,99633.50
2024-04-16T15:10:38.155Z,99632.38
2024-04-16T15:13:09.112Z,99640.25
2024-04-16T15:15:35.946Z,99640.25
2024-04-16T15:18:03.374Z,99643.75
2024-04-16T15:20:30.395Z,99647.25
2024-04-16T15:22:58.634Z,99643.59
2024-04-16T15:25:25.591Z,99645.25
2024-04-16T15:27:57.039Z,99629.56
2024-04-16T15:30:23.783Z,99649.16
2024-04-16T15:32:50.546Z,99633.97
2024-04-16T15:35:17.464Z,99640.69
2024-04-16T15:37:44.495Z,99643.72
2024-04-16T15:40:17.396Z,99652.09
2024-04-16T15:42:51.168Z,99653.44
2024-04-16T15:45:18.020Z,99656.81
2024-04-16T15:47:47.714Z,99663.84
2024-04-16T15:50:17.283Z,99658.09
2024-04-16T15:52:46.406Z,99661.47
2024-04-16T15:55:14.300Z,99662.47
2024-04-16T15:57:41.122Z,99668.09
2024-04-16T16:00:08.430Z,99673.44
2024-04-16T16:02:35.249Z,99663.94
2024-04-16T16:05:02.140Z,99675.75
2024-04-16T16:07:29.333Z,99671.41
2024-04-16T16:09:56.543Z,99669.34
2024-04-16T16:12:23.333Z,99671.88
2024-04-16T16:14:50.133Z,99675.72
2024-04-16T16:17:16.884Z,99671.34
2024-04-16T16:19:43.857Z,99681.19
2024-04-16T16:22:11.714Z,99689.34
2024-04-16T16:24:38.454Z,99691.03
2024-04-16T16:27:05.376Z,99686.69
2024-04-16T16:29:32.115Z,99685.97
2024-04-16T16:32:01.892Z,99687.69
2024-04-16T16:34:28.754Z,99687.94
2024-04-16T16:36:55.705Z,99691.44
2024-04-16T16:39:22.418Z,99703.28
2024-04-16T16:41:52.409Z,99707.94
2024-04-16T16:44:19.165Z,99713.41
2024-04-16T16:46:49.132Z,99712.72
2024-04-16T16:49:15.960Z,99713.56
2024-04-16T16:51:42.770Z,99713.06
2024-04-16T16:54:09.558Z,99716.56
2024-04-16T16:56:36.288Z,99719.22
2024-04-16T16:59:03.045Z,99714.84
2024-04-16T17:01:29.819Z,99720.06
2024-04-16T17:03:56.667Z,99712.19
2024-04-16T17:06:23.413Z,99724.22
2024-04-16T17:08:50.136Z,99725.91
2024-04-16T17:11:17.136Z,99726.91
2024-04-16T17:13:44.438Z,99725.38
2024-04-16T17:16:11.259Z,99728.19
2024-04-16T17:18:40.113Z,99737.91
2024-04-16T17:21:06.923Z,99730.19
2024-04-16T17:23:33.779Z,99732.84
2024-04-16T17:26:00.600Z,99736.66
2024-04-16T17:28:27.433Z,99749.03
2024-04-16T17:30:54.239Z,99741.19
2024-04-16T17:33:21.284Z,99748.50
2024-04-16T17:35:48.719Z,99741.47
2024-04-16T17:38:16.098Z,99750.34
2024-04-16T17:40:42.919Z,99758.34
2024-04-16T17:43:09.705Z,99758.16
2024-04-16T17:45:39.121Z,99763.66
2024-04-16T17:48:07.962Z,99756.66
2024-04-16T17:50:34.808Z,99771.69
2024-04-16T17:53:01.616Z,99772.66
2024-04-16T17:55:28.522Z,99771.69
2024-04-16T17:57:55.313Z,99775.84
2024-04-16T18:00:34.940Z,99783.72
2024-04-16T18:03:07.079Z,99781.47
2024-04-16T18:05:35.260Z,99786.69
2024-04-16T18:08:05.083Z,99797.19
2024-04-16T18:10:32.192Z,99797.34
2024-04-16T18:12:59.189Z,99794.53
2024-04-16T18:15:26.075Z,99805.22
2024-04-16T18:17:52.918Z,99804.19
2024-04-16T18:20:19.782Z,99815.88
2024-04-16T18:22:47.110Z,99813.34
2024-04-16T18:25:15.903Z,99814.78
2024-04-16T18:27:43.339Z,99833.19
2024-04-16T18:30:10.429Z,99825.19
2024-04-16T18:32:37.333Z,99834.16
2024-04-16T18:35:04.473Z,99847.66
2024-04-16T18:37:31.220Z,99845.13
2024-04-16T18:39:58.037Z,99846.13
2024-04-16T18:42:24.810Z,99854.44
2024-04-16T18:44:51.790Z,99852.88
2024-04-16T18:47:18.949Z,99862.72
2024-04-16T18:49:46.213Z,99853.19
2024-04-16T18:52:13.121Z,99863.16
2024-04-16T18:54:40.410Z,99867.97
2024-04-16T18:57:07.128Z,99878.63
2024-04-16T18:59:33.886Z,99869.94
2024-04-16T19:02:01.603Z,99870.25
2024-04-16T19:04:34.026Z,99880.91
2024-04-16T19:07:01.182Z,99876.53
2024-04-16T19:09:27.949Z,99873.50
2024-04-16T19:11:54.768Z,99876.16
2024-04-16T19:14:21.889Z,99880.50
2024-04-16T19:16:50.203Z,99886.84
2024-04-16T19:19:17.149Z,99884.16
2024-04-16T19:21:44.262Z,99886.84
2024-04-16T19:24:11.155Z,99890.47
2024-04-16T19:26:37.917Z,99899.59
2024-04-16T19:29:04.808Z,99894.69
2024-04-16T19:31:34.149Z,99906.78
2024-04-16T19:34:00.981Z,99906.22
2024-04-16T19:36:27.806Z,99909.03
2024-04-16T19:38:54.713Z,99906.50
2024-04-16T19:41:21.563Z,99905.66
2024-04-16T19:43:50.127Z,99907.50
2024-04-16T19:46:16.964Z,99912.13
2024-04-16T19:48:43.940Z,99919.97
2024-04-16T19:51:10.827Z,99928.28
2024-04-16T19:53:37.639Z,99929.25
2024-04-16T19:56:04.654Z,99929.53
2024-04-16T19:58:37.862Z,99929.53
2024-04-16T20:01:10.084Z,99933.88
2024-04-16T20:03:38.174Z,99936.84
2024-04-16T20:06:05.945Z,99935.16
2024-04-16T20:08:32.790Z,99937.13
2024-04-16T20:11:02.487Z,99927.47
2024-04-16T20:13:29.769Z,99946.13
2024-04-16T20:15:56.978Z,99944.44
2024-04-16T20:18:24.235Z,99950.75
2024-04-16T20:21:04.610Z,99941.06
2024-04-16T20:23:32.583Z,99945.56
2024-04-16T20:26:06.339Z,99946.56
2024-04-16T20:28:37.716Z,99953.69
2024-04-16T20:31:05.015Z,99960.03
2024-04-16T20:33:32.340Z,99946.97
2024-04-16T20:36:03.570Z,99958.47
2024-04-16T20:38:31.412Z,99962.00
2024-04-16T20:40:59.336Z,99956.66
2024-04-16T20:43:26.215Z,99959.31
2024-04-16T20:45:53.173Z,99961.81
2024-04-16T20:48:21.708Z,99976.97
2024-04-16T20:50:55.510Z,99971.66
2024-04-16T20:53:26.443Z,99983.16
2024-04-16T20:55:53.388Z,99973.34
2024-04-16T20:58:21.498Z,99984.28
2024-04-16T21:00:48.486Z,99976.28
2024-04-16T21:03:15.479Z,99990.44
2024-04-16T21:05:42.481Z,99987.94
2024-04-16T21:08:09.523Z,99994.25
2024-04-16T21:10:38.228Z,99996.91
2024-04-16T21:13:05.475Z,99993.53
2024-04-16T21:15:32.205Z,100001.41
2024-04-16T21:17:59.328Z,100000.56
2024-04-16T21:20:26.188Z,100001.69
2024-04-16T21:22:52.935Z,100007.88
2024-04-16T21:25:19.921Z,100006.19
2024-04-16T21:27:46.939Z,100003.63
2024-04-16T21:30:13.674Z,100010.94
2024-04-16T21:32:40.519Z,100010.09
2024-04-16T21:35:07.607Z,100020.06
2024-04-16T21:37:34.395Z,100025.53
2024-04-16T21:40:01.409Z,100022.16
2024-04-16T21:42:28.145Z,100022.31
2024-04-16T21:44:54.874Z,100026.66
2024-04-16T21:47:22.301Z,100043.63
2024-04-16T21:49:49.424Z,100045.59
2024-04-16T21:52:17.608Z,100043.78
2024-04-16T21:54:44.534Z,100038.56
2024-04-16T21:57:11.545Z,100040.41
2024-04-16T21:59:38.244Z,100051.19
2024-04-16T22:02:05.169Z,100048.78
2024-04-16T22:04:31.992Z,100048.97
2024-04-16T22:06:58.776Z,100057.78
2024-04-16T22:09:25.706Z,100057.78
2024-04-16T22:11:52.590Z,100066.75
2024-04-16T22:14:19.648Z,100070.53
2024-04-16T22:16:46.569Z,100070.41
2024-04-16T22:19:13.530Z,100076.69
2024-04-16T22:21:40.206Z,100077.69
2024-04-16T22:24:06.964Z,100079.34
2024-04-16T22:26:33.710Z,100081.31
2024-04-16T22:29:00.438Z,100070.97
2024-04-16T22:31:27.203Z,100082.31
2024-04-16T22:33:53.982Z,100086.66
2024-04-16T22:36:23.023Z,100080.50
2024-04-16T22:38:50.236Z,100086.66
2024-04-16T22:41:17.094Z,100082.31
2024-04-16T22:43:43.831Z,100098.31
2024-04-16T22:46:12.311Z,100094.81
2024-04-16T22:48:39.367Z,100095.63
2024-04-16T22:51:06.157Z,100093.94
2024-04-16T22:53:33.016Z,100098.44
2024-04-16T22:56:00.023Z,100095.91
2024-04-16T22:58:26.860Z,100108.50
2024-04-16T23:00:53.730Z,100106.84
2024-04-16T23:03:20.541Z,100115.81
2024-04-16T23:05:47.507Z,100112.44
2024-04-16T23:08:14.257Z,100113.56
2024-04-16T23:10:42.061Z,100121.69
2024-04-16T23:13:09.218Z,100114.69
2024-04-16T23:15:36.375Z,100121.97
2024-04-16T23:18:03.506Z,100130.78
2024-04-16T23:20:34.916Z,100122.94
2024-04-16T23:25:51.609Z,100123.91
2024-04-16T23:28:18.510Z,100120.56
2024-04-16T23:30:46.389Z,100123.22
2024-04-16T23:33:13.195Z,100131.22
2024-04-16T23:35:39.949Z,100125.19
2024-04-16T23:38:06.701Z,100121.66
2024-04-16T23:40:33.451Z,100119.13
2024-04-16T23:43:00.231Z,100129.78
2024-04-16T23:45:26.980Z,100128.91
2024-04-16T23:47:53.788Z,100125.44
2024-04-16T23:50:20.647Z,100125.44
2024-04-16T23:52:47.974Z,100122.06
2024-04-16T23:55:15.409Z,100123.06
2024-04-16T23:57:42.145Z,100125.00
